Time;durP1;ratioP1;P1;durP2;ratioP2;P2;SDS_P1;SDS_P2;PMS_P1;PMS_P2;Temp;Humidity;BMP_temperature;BMP_pressure;BME280_temperature;BME280_humidity;BME280_pressure;Samples;Min_cycle;Max_cycle;Signal;HPM_P1;HPM_P2
2022/11/08 00:03:34;;;;;;;37.10;21.70;;;;;;;5.31;89.43;98705.95;106330;1304;139144;-73
2022/11/08 00:14:14;;;;;;;35.00;20.70;;;;;;;5.30;89.77;98704.46;106588;1310;22377;-72
2022/11/08 00:16:40;;;;;;;31.20;18.90;;;;;;;5.29;89.49;98708.52;106515;1310;139029;-72
2022/11/08 00:19:07;;;;;;;34.10;20.00;;;;;;;5.28;89.62;98708.08;106490;1310;140160;-72
2022/11/08 00:21:33;;;;;;;30.30;19.10;;;;;;;5.28;89.59;98711.02;106376;1310;139541;-72
2022/11/08 00:23:59;;;;;;;38.70;20.30;;;;;;;5.27;89.60;98708.36;106412;1298;138625;-72
2022/11/08 00:26:26;;;;;;;33.30;18.50;;;;;;;5.26;89.29;98705.86;106549;1310;22087;-72
2022/11/08 00:28:52;;;;;;;27.60;17.70;;;;;;;5.25;89.27;98705.82;106349;1312;139004;-72
2022/11/08 00:44:42;;;;;;;32.90;20.30;;;;;;;5.16;89.43;98700.32;99693;1347;558206;-75
2022/11/08 00:47:09;;;;;;;31.30;19.10;;;;;;;5.13;89.48;98701.77;101530;1326;23398;-74
2022/11/08 00:49:35;;;;;;;33.00;18.50;;;;;;;5.11;89.48;98702.30;101279;1301;137655;-73
2022/11/08 00:52:01;;;;;;;30.60;18.80;;;;;;;5.08;89.54;98703.95;101351;1307;137201;-73
2022/11/08 00:54:28;;;;;;;33.80;18.60;;;;;;;5.05;89.57;98706.89;101434;1311;137373;-73
2022/11/08 00:56:56;;;;;;;30.90;18.50;;;;;;;5.02;89.68;98705.25;100640;1323;1091966;-73
2022/11/08 00:59:22;;;;;;;30.70;18.70;;;;;;;4.99;89.84;98704.75;101524;1322;137854;-73
2022/11/08 01:01:49;;;;;;;31.30;17.70;;;;;;;4.94;89.85;98702.62;101613;1297;22749;-76
2022/11/08 01:04:17;;;;;;;35.00;19.50;;;;;;;4.92;89.71;98704.02;101529;1323;137293;-72
2022/11/08 01:06:44;;;;;;;31.40;18.40;;;;;;;4.88;89.84;98701.56;101437;1322;137818;-75
2022/11/08 01:09:13;;;;;;;30.10;17.80;;;;;;;4.84;89.90;98704.91;101596;1307;137630;-73
2022/11/08 01:11:44;;;;;;;29.20;17.00;;;;;;;4.81;89.94;98707.76;101518;1322;137767;-75
2022/11/08 01:14:10;;;;;;;33.10;18.90;;;;;;;4.77;90.00;98704.42;101565;1322;22513;-74
2022/11/08 01:16:39;;;;;;;33.40;18.60;;;;;;;4.74;90.23;98703.28;101527;1310;137455;-76
2022/11/08 01:19:06;;;;;;;31.10;17.50;;;;;;;4.72;90.29;98700.70;101648;1324;137877;-73
2022/11/08 01:21:32;;;;;;;31.50;18.10;;;;;;;4.69;90.12;98700.94;101523;1322;137550;-74
2022/11/08 01:24:01;;;;;;;29.30;17.20;;;;;;;4.66;90.32;98705.13;101513;1318;137691;-72
2022/11/08 01:26:28;;;;;;;30.80;18.20;;;;;;;4.62;90.34;98709.42;101645;1323;25393;-72
2022/11/08 01:28:56;;;;;;;27.90;16.20;;;;;;;4.60;90.48;98704.30;101609;1310;137269;-76
2022/11/08 01:31:28;;;;;;;30.20;18.20;;;;;;;4.57;90.60;98702.55;101650;1315;137681;-73
2022/11/08 01:33:55;;;;;;;28.20;17.80;;;;;;;4.53;90.71;98701.86;101471;1325;137562;-75
2022/11/08 01:36:24;;;;;;;31.30;19.50;;;;;;;4.52;91.08;98700.70;101521;1324;137664;-72
2022/11/08 01:38:52;;;;;;;45.20;22.00;;;;;;;4.50;91.35;98700.48;101644;1321;137848;-73
2022/11/08 01:41:21;;;;;;;37.60;20.30;;;;;;;4.49;91.44;98700.64;101361;1302;137790;-73
2022/11/08 01:43:54;;;;;;;33.10;20.40;;;;;;;4.48;91.50;98698.77;101652;1323;22475;-74
2022/11/08 01:46:43;;;;;;;37.00;19.60;;;;;;;4.48;91.60;98700.30;101481;1318;137489;-73
2022/11/08 01:49:39;;;;;;;36.60;22.10;;;;;;;4.47;91.77;98694.63;101626;1321;137745;-73
2022/11/08 01:52:09;;;;;;;37.90;20.50;;;;;;;4.46;91.98;98694.05;101585;1313;137564;-73
2022/11/08 01:54:48;;;;;;;40.20;21.70;;;;;;;4.45;92.00;98693.77;101579;1322;138434;-73
2022/11/08 01:57:19;;;;;;;37.10;21.40;;;;;;;4.45;92.02;98694.07;101720;1322;137648;-73
2022/11/08 01:59:49;;;;;;;35.40;21.80;;;;;;;4.45;92.17;98696.56;101573;1314;137827;-73
2022/11/08 02:02:19;;;;;;;36.50;21.10;;;;;;;4.44;92.30;98698.91;101574;1322;22531;-75
2022/11/08 02:04:48;;;;;;;40.00;22.40;;;;;;;4.44;92.39;98699.38;101839;1307;137747;-74
2022/11/08 02:07:16;;;;;;;37.80;21.80;;;;;;;4.44;92.30;98697.79;101767;1306;138853;-72
2022/11/08 02:09:45;;;;;;;37.30;22.60;;;;;;;4.42;92.23;98691.02;101752;1313;138160;-72
2022/11/08 02:12:13;;;;;;;36.00;22.20;;;;;;;4.39;92.22;98690.30;101701;1316;138330;-72
2022/11/08 02:14:39;;;;;;;35.90;22.00;;;;;;;4.37;92.19;98692.36;101819;1321;138571;-73
2022/11/08 02:17:09;;;;;;;34.80;20.20;;;;;;;4.34;92.26;98688.62;102112;1311;22582;-73
2022/11/08 02:19:40;;;;;;;36.90;20.10;;;;;;;4.31;92.36;98687.48;101884;1308;137803;-72
2022/11/08 02:22:47;;;;;;;35.20;19.80;;;;;;;4.30;92.23;98686.95;101887;1322;137687;-72
2022/11/08 02:25:14;;;;;;;30.50;18.60;;;;;;;4.29;92.55;98683.98;101447;1328;137662;-73
2022/11/08 02:27:40;;;;;;;29.70;18.50;;;;;;;4.29;92.68;98680.27;101746;1317;137605;-72
2022/11/08 02:30:09;;;;;;;30.00;17.80;;;;;;;4.29;92.70;98683.66;101378;1329;137746;-72
2022/11/08 02:32:43;;;;;;;31.70;17.60;;;;;;;4.30;93.05;98680.31;101542;1310;137716;-72
2022/11/08 02:35:14;;;;;;;25.20;16.90;;;;;;;4.30;92.97;98683.33;101643;1324;22473;-72
2022/11/08 02:37:41;;;;;;;29.80;17.80;;;;;;;4.31;93.15;98684.45;101810;1321;22522;-71
2022/11/08 02:40:10;;;;;;;25.40;15.90;;;;;;;4.33;93.31;98684.35;101497;1319;138034;-72
2022/11/08 02:42:37;;;;;;;;;;;;;;;4.35;93.53;98679.65;101883;1329;138188;-72
2022/11/08 02:45:07;;;;;;;26.50;16.00;;;;;;;4.36;93.75;98680.01;101339;1307;124618;-72
2022/11/08 02:47:36;;;;;;;29.90;16.10;;;;;;;4.39;93.87;98681.67;101823;1316;138235;-72
2022/11/08 02:50:02;;;;;;;26.60;15.60;;;;;;;4.41;94.00;98676.26;101859;1332;24336;-72
2022/11/08 02:52:28;;;;;;;26.10;15.20;;;;;;;4.43;94.02;98679.20;101790;1327;137469;-73
2022/11/08 02:54:54;;;;;;;24.90;14.90;;;;;;;4.44;93.99;98678.59;101469;1332;137579;-72
2022/11/08 02:57:22;;;;;;;25.90;15.30;;;;;;;4.46;93.92;98683.25;101337;1328;137528;-72
2022/11/08 02:59:48;;;;;;;27.70;13.70;;;;;;;4.48;93.80;98684.12;101278;1329;137745;-71
2022/11/08 03:02:14;;;;;;;25.00;13.60;;;;;;;4.49;93.92;98687.41;101503;1326;22473;-74
2022/11/08 03:04:40;;;;;;;27.00;15.10;;;;;;;4.50;93.85;98688.55;101761;1307;137357;-72
2022/11/08 03:07:06;;;;;;;23.30;13.20;;;;;;;4.51;94.06;98682.56;102164;1314;138295;-72
2022/11/08 03:09:33;;;;;;;22.50;13.00;;;;;;;4.53;94.11;98681.95;102127;1320;138107;-73
2022/11/08 03:12:00;;;;;;;22.00;12.70;;;;;;;4.54;94.04;98684.89;101676;1314;137749;-73
2022/11/08 03:14:26;;;;;;;23.00;13.20;;;;;;;4.55;93.96;98682.95;101737;1314;24683;-72
2022/11/08 03:16:52;;;;;;;22.00;13.80;;;;;;;4.56;93.97;98686.02;101720;1312;137376;-73
2022/11/08 03:19:18;;;;;;;26.40;13.80;;;;;;;4.57;93.99;98680.39;101771;1324;137916;-72
2022/11/08 03:21:45;;;;;;;19.70;12.20;;;;;;;4.58;94.00;98680.31;101881;1323;138335;-72
2022/11/08 03:24:11;;;;;;;23.80;13.20;;;;;;;4.59;93.83;98680.61;101744;1329;137985;-73
2022/11/08 03:26:37;;;;;;;22.00;13.20;;;;;;;4.59;93.87;98680.91;101798;1313;138204;-74
2022/11/08 03:29:03;;;;;;;26.70;14.30;;;;;;;4.59;93.90;98684.30;102442;1295;26243;-72
2022/11/08 03:31:30;;;;;;;22.10;12.40;;;;;;;4.59;94.03;98684.80;102293;1317;138264;-72
2022/11/08 03:33:56;;;;;;;21.50;12.70;;;;;;;4.60;94.08;98681.99;102359;1312;137681;-72
2022/11/08 03:36:22;;;;;;;23.60;13.90;;;;;;;4.61;94.06;98683.15;102234;1315;137813;-73
2022/11/08 03:38:49;;;;;;;25.20;13.70;;;;;;;4.61;94.08;98682.61;102243;1320;138680;-72
2022/11/08 03:41:15;;;;;;;23.20;13.90;;;;;;;4.60;93.50;98687.25;102340;1319;22550;-73
2022/11/08 03:43:42;;;;;;;21.30;13.00;;;;;;;4.55;93.08;98688.34;101979;1320;25361;-73
2022/11/08 03:46:08;;;;;;;25.20;13.90;;;;;;;4.53;93.49;98684.24;102061;1317;138246;-73
2022/11/08 03:48:35;;;;;;;22.10;12.70;;;;;;;4.53;93.63;98684.33;102161;1319;138755;-74
2022/11/08 03:51:01;;;;;;;20.50;12.50;;;;;;;4.52;93.52;98683.93;101923;1319;137924;-72
2022/11/08 03:53:27;;;;;;;20.60;12.40;;;;;;;4.50;93.50;98686.67;102242;1319;138097;-72
2022/11/08 03:55:53;;;;;;;19.60;12.40;;;;;;;4.50;93.85;98684.73;102440;1319;23282;-72
2022/11/08 03:58:19;;;;;;;24.90;12.70;;;;;;;4.50;93.83;98685.92;102335;1310;137664;-73
2022/11/08 04:00:45;;;;;;;20.60;11.80;;;;;;;4.50;93.92;98687.55;102187;1319;137981;-71
2022/11/08 04:03:12;;;;;;;19.60;13.10;;;;;;;4.51;93.92;98689.49;102106;1319;138259;-72
2022/11/08 04:05:38;;;;;;;21.70;13.10;;;;;;;4.49;93.89;98684.42;102237;1314;137995;-73
2022/11/08 04:08:06;;;;;;;23.10;13.40;;;;;;;4.50;93.92;98688.89;102520;1317;22477;-72
2022/11/08 04:10:32;;;;;;;19.90;12.80;;;;;;;4.50;94.10;98686.88;102132;1320;138049;-73
2022/11/08 04:15:50;;;;;;;21.90;12.60;;;;;;;4.50;94.20;98684.84;102823;1301;137863;-73
2022/11/08 04:21:20;;;;;;;26.80;13.80;;;;;;;4.50;94.36;98686.84;102546;1317;140966;-73
2022/11/08 04:23:48;;;;;;;22.90;13.00;;;;;;;4.49;94.41;98686.09;102842;1298;137963;-74
2022/11/08 04:26:14;;;;;;;22.80;12.40;;;;;;;4.48;94.01;98686.03;102547;1319;22484;-73
2022/11/08 04:28:41;;;;;;;23.30;12.30;;;;;;;4.45;93.49;98686.11;102636;1307;137697;-75
2022/11/08 04:31:11;;;;;;;22.10;12.90;;;;;;;4.42;93.62;98688.91;103081;1304;140213;-73
2022/11/08 04:33:37;;;;;;;22.70;13.20;;;;;;;4.40;93.84;98684.41;102398;1318;137753;-72
2022/11/08 04:36:14;;;;;;;25.00;13.70;;;;;;;4.38;94.02;98682.50;102308;1302;138092;-73
2022/11/08 04:38:40;;;;;;;23.50;11.80;;;;;;;4.37;93.94;98682.08;103037;1300;138055;-73
2022/11/08 04:41:10;;;;;;;22.70;13.30;;;;;;;4.35;93.89;98678.66;102569;1319;22487;-73
2022/11/08 04:43:37;;;;;;;22.30;13.30;;;;;;;4.34;94.01;98677.96;102097;1319;137445;-73
2022/11/08 04:46:09;;;;;;;22.20;12.10;;;;;;;4.33;93.82;98676.50;101934;1319;137865;-73
2022/11/08 04:48:35;;;;;;;24.70;13.80;;;;;;;4.31;93.75;98673.55;102243;1319;137842;-73
2022/11/08 04:51:15;;;;;;;22.60;14.00;;;;;;;4.28;93.83;98668.35;102737;1301;137872;-72
2022/11/08 04:53:41;;;;;;;22.90;13.20;;;;;;;4.26;93.72;98665.23;102491;1310;138476;-73
2022/11/08 04:56:10;;;;;;;22.40;13.30;;;;;;;4.25;93.86;98662.11;102517;1297;24342;-72
2022/11/08 04:58:39;;;;;;;20.20;11.70;;;;;;;4.23;93.75;98662.55;102699;1304;137750;-73
2022/11/08 05:01:07;;;;;;;19.10;11.70;;;;;;;4.19;93.53;98662.61;102418;1319;138007;-72
2022/11/08 05:03:33;;;;;;;19.40;12.20;;;;;;;4.17;93.63;98663.86;102155;1319;138046;-73
2022/11/08 05:06:14;;;;;;;23.50;12.60;;;;;;;4.16;93.93;98662.92;102348;1316;138200;-74
2022/11/08 05:08:41;;;;;;;24.80;13.20;;;;;;;4.15;94.08;98659.95;102134;1319;138072;-73
2022/11/08 05:11:17;;;;;;;22.20;13.10;;;;;;;4.14;94.25;98657.17;102687;1300;22482;-73
2022/11/08 05:13:44;;;;;;;27.60;14.70;;;;;;;4.12;93.61;98654.95;102181;1317;22479;-73
2022/11/08 05:16:13;;;;;;;27.60;13.20;;;;;;;4.08;93.43;98656.77;102086;1319;137725;-73
2022/11/08 05:18:40;;;;;;;34.00;14.80;;;;;;;4.01;92.97;98657.83;102183;1319;137977;-72
2022/11/08 05:23:55;;;;;;;22.60;13.40;;;;;;;3.90;93.43;98661.02;102304;1296;138534;-73
2022/11/08 05:26:21;;;;;;;25.60;13.20;;;;;;;3.87;93.26;98660.85;102217;1319;25296;-73
2022/11/08 05:28:48;;;;;;;22.40;12.20;;;;;;;3.84;93.34;98664.96;101835;1319;137819;-73
2022/11/08 05:31:15;;;;;;;23.10;12.40;;;;;;;3.83;93.31;98668.23;102586;1305;137949;-75
2022/11/08 05:33:41;;;;;;;20.50;12.30;;;;;;;3.80;93.05;98669.41;102493;1318;137775;-73
2022/11/08 05:36:15;;;;;;;27.00;13.10;;;;;;;3.77;93.03;98671.01;102671;1316;138039;-73
2022/11/08 05:38:42;;;;;;;28.60;13.20;;;;;;;3.77;93.13;98672.21;102873;1317;138159;-73
2022/11/08 05:41:12;;;;;;;23.50;13.40;;;;;;;3.75;93.33;98672.91;102555;1318;24275;-72
2022/11/08 05:43:39;;;;;;;21.50;12.70;;;;;;;3.74;93.36;98668.64;102283;1319;139128;-73
2022/11/08 05:46:05;;;;;;;23.20;12.80;;;;;;;3.74;93.49;98675.47;102031;1318;137897;-72
2022/11/08 05:48:32;;;;;;;22.00;12.40;;;;;;;3.73;93.63;98679.63;105531;1318;138012;-73
2022/11/08 05:50:58;;;;;;;20.60;12.20;;;;;;;3.73;93.73;98685.06;104950;1311;138172;-73
2022/11/08 05:53:24;;;;;;;19.80;11.20;;;;;;;3.73;93.67;98683.95;102033;1319;138205;-73
2022/11/08 05:55:57;;;;;;;21.60;11.90;;;;;;;3.72;93.08;98687.04;101942;1318;22489;-75
2022/11/08 05:58:25;;;;;;;26.10;13.00;;;;;;;3.71;93.12;98693.30;102071;1319;137669;-73
2022/11/08 06:01:01;;;;;;;24.80;13.60;;;;;;;3.70;93.36;98693.65;102038;1318;138030;-72
2022/11/08 06:03:28;;;;;;;24.10;12.60;;;;;;;3.76;93.64;98697.85;101869;1321;137868;-75
2022/11/08 06:05:54;;;;;;;26.70;13.70;;;;;;;3.76;93.16;98695.66;102034;1319;138180;-74
2022/11/08 06:08:21;;;;;;;25.90;13.10;;;;;;;3.75;92.79;98692.38;102163;1318;23655;-72
2022/11/08 06:10:47;;;;;;;29.10;14.20;;;;;;;3.74;92.84;98688.17;102104;1311;137911;-73
2022/11/08 06:13:13;;;;;;;25.10;11.00;;;;;;;3.74;92.74;98690.05;102047;1319;137945;-72
2022/11/08 06:15:39;;;;;;;26.50;12.80;;;;;;;3.72;92.49;98693.05;102007;1319;137999;-72
2022/11/08 06:18:05;;;;;;;21.70;12.20;;;;;;;3.72;93.09;98692.34;102053;1318;137969;-72
2022/11/08 06:20:32;;;;;;;28.40;13.10;;;;;;;3.75;93.30;98695.77;102123;1300;22514;-73
2022/11/08 06:22:58;;;;;;;24.20;12.50;;;;;;;3.78;93.71;98696.63;102030;1318;137534;-72
2022/11/08 06:25:24;;;;;;;23.00;13.70;;;;;;;3.82;93.85;98702.87;102058;1296;137956;-74
2022/11/08 06:27:50;;;;;;;24.20;13.00;;;;;;;3.90;95.28;98704.66;102261;1306;137919;-72
2022/11/08 06:30:16;;;;;;;24.10;13.10;;;;;;;4.02;95.05;98705.59;102608;1317;138481;-72
2022/11/08 06:32:43;;;;;;;29.30;13.70;;;;;;;4.10;94.86;98708.21;102288;1317;138094;-73
2022/11/08 06:35:09;;;;;;;23.40;13.00;;;;;;;4.15;94.72;98705.17;102302;1298;25347;-73
2022/11/08 06:37:35;;;;;;;24.30;12.40;;;;;;;4.21;94.77;98703.05;102166;1319;137655;-73
2022/11/08 06:40:01;;;;;;;24.00;13.10;;;;;;;4.25;94.80;98705.16;101727;1304;138298;-72
2022/11/08 06:42:27;;;;;;;24.90;13.10;;;;;;;4.29;94.89;98707.38;102287;1310;137975;-73
2022/11/08 06:44:54;;;;;;;25.40;12.40;;;;;;;4.34;95.03;98712.64;102172;1316;138010;-75
2022/11/08 06:47:20;;;;;;;24.60;13.40;;;;;;;4.39;94.98;98712.21;102219;1294;138227;-73
2022/11/08 06:49:46;;;;;;;21.80;13.40;;;;;;;4.44;95.23;98714.77;102338;1300;23975;-72
2022/11/08 06:52:12;;;;;;;20.20;12.60;;;;;;;4.50;95.47;98719.23;102124;1318;138166;-73
2022/11/08 06:54:38;;;;;;;33.40;14.40;;;;;;;4.55;95.61;98718.35;102305;1303;137976;-73
2022/11/08 06:57:05;;;;;;;34.20;14.30;;;;;;;4.62;95.76;98716.48;102264;1301;138009;-73
2022/11/08 06:59:31;;;;;;;26.00;13.10;;;;;;;4.68;95.69;98720.13;102290;1302;138760;-72
2022/11/08 07:01:57;;;;;;;25.00;14.20;;;;;;;4.75;95.84;98719.81;102265;1318;22486;-74
2022/11/08 07:04:23;;;;;;;22.50;11.60;;;;;;;4.81;95.98;98723.13;102272;1301;137653;-75
2022/11/08 07:06:49;;;;;;;19.70;13.00;;;;;;;4.88;96.12;98723.85;102173;1308;139180;-74
2022/11/08 07:09:16;;;;;;;20.30;11.90;;;;;;;4.95;96.21;98724.51;102142;1294;138259;-73
2022/11/08 07:11:42;;;;;;;18.20;11.30;;;;;;;5.03;96.22;98724.91;102188;1318;138107;-73
2022/11/08 07:14:08;;;;;;;15.30;10.60;;;;;;;5.11;96.25;98723.06;102226;1319;22474;-73
2022/11/08 07:16:34;;;;;;;15.80;10.00;;;;;;;5.20;96.45;98722.33;102273;1313;137703;-73
2022/11/08 07:19:01;;;;;;;17.80;11.00;;;;;;;5.28;96.41;98722.36;102189;1319;138002;-72
2022/11/08 07:21:27;;;;;;;18.00;10.50;;;;;;;5.37;96.58;98723.13;102156;1294;137896;-75
2022/11/08 07:23:53;;;;;;;18.90;10.60;;;;;;;5.46;96.73;98722.80;102497;1314;138208;-73
2022/11/08 07:26:19;;;;;;;20.00;10.20;;;;;;;5.56;96.68;98727.10;102335;1318;24501;-73
2022/11/08 07:28:46;;;;;;;18.10;9.50;;;;;;;5.65;96.57;98726.23;102328;1309;137890;-73
2022/11/08 07:31:15;;;;;;;16.40;9.30;;;;;;;5.75;96.36;98727.83;102388;1318;137796;-73
2022/11/08 07:33:41;;;;;;;14.40;8.60;;;;;;;5.84;96.04;98731.60;102304;1311;137604;-72
2022/11/08 07:36:10;;;;;;;15.10;9.40;;;;;;;5.93;95.99;98730.78;102342;1317;137851;-73
2022/11/08 07:38:36;;;;;;;13.70;8.80;;;;;;;6.01;95.65;98731.97;102021;1300;138037;-73
2022/11/08 07:41:02;;;;;;;16.20;9.00;;;;;;;6.10;95.21;98728.06;102562;1292;22352;-73
2022/11/08 07:43:29;;;;;;;14.80;9.20;;;;;;;6.18;94.97;98729.30;102266;1318;137740;-74
2022/11/08 07:46:00;;;;;;;10.70;6.90;;;;;;;6.27;94.91;98725.25;102384;1318;137787;-73
2022/11/08 07:48:28;;;;;;;14.00;8.30;;;;;;;6.36;94.94;98723.48;102512;1317;137771;-72
2022/11/08 07:50:54;;;;;;;11.70;7.50;;;;;;;6.44;94.78;98720.39;102239;1318;138234;-72
2022/11/08 07:53:21;;;;;;;13.40;7.50;;;;;;;6.53;94.69;98719.36;102426;1297;137943;-73
2022/11/08 07:55:48;;;;;;;15.80;8.80;;;;;;;6.61;94.13;98718.80;102627;1318;22500;-73
2022/11/08 07:58:15;;;;;;;14.10;8.60;;;;;;;6.70;94.29;98717.57;102152;1319;137878;-72
2022/11/08 08:00:43;;;;;;;13.10;7.70;;;;;;;6.78;94.02;98721.27;102396;1319;137805;-73
2022/11/08 08:03:12;;;;;;;14.80;8.90;;;;;;;6.86;93.95;98718.21;102386;1305;137941;-73
2022/11/08 08:05:43;;;;;;;15.40;8.40;;;;;;;6.95;93.90;98720.80;102311;1318;137926;-72
2022/11/08 08:08:12;;;;;;;16.30;9.80;;;;;;;7.03;93.85;98719.27;102668;1319;23228;-72
2022/11/08 08:10:39;;;;;;;17.80;11.70;;;;;;;7.11;93.62;98717.23;102244;1310;138045;-73
2022/11/08 08:13:05;;;;;;;16.10;10.80;;;;;;;7.20;94.21;98718.09;102527;1313;22522;-73
2022/11/08 08:15:32;;;;;;;15.70;10.30;;;;;;;7.29;93.97;98716.55;102397;1319;137724;-73
2022/11/08 08:18:01;;;;;;;10.20;7.90;;;;;;;7.37;93.92;98712.95;102369;1295;22494;-73
2022/11/08 08:20:28;;;;;;;12.60;7.70;;;;;;;7.46;93.23;98713.44;102684;1310;137727;-73
2022/11/08 08:22:55;;;;;;;14.40;9.10;;;;;;;7.54;93.14;98706.84;102591;1315;137832;-73
2022/11/08 08:25:21;;;;;;;13.80;9.00;;;;;;;7.62;92.61;98702.98;102378;1312;22494;-73
2022/11/08 08:27:56;;;;;;;16.70;9.80;;;;;;;7.70;92.42;98706.39;102282;1318;137838;-74
2022/11/08 08:30:24;;;;;;;16.80;8.60;;;;;;;7.79;92.52;98705.60;102704;1310;23127;-73
2022/11/08 08:32:51;;;;;;;12.80;7.50;;;;;;;7.87;92.02;98703.38;102028;1313;139700;-75
2022/11/08 08:35:17;;;;;;;12.10;6.30;;;;;;;7.94;91.50;98704.86;102427;1319;22471;-73
2022/11/08 08:37:44;;;;;;;10.50;6.70;;;;;;;8.03;91.37;98702.59;102437;1319;24193;-73
2022/11/08 08:40:11;;;;;;;10.80;6.70;;;;;;;8.11;91.21;98699.58;102218;1319;138119;-73
2022/11/08 08:42:37;;;;;;;10.00;5.90;;;;;;;8.20;91.12;98701.59;102423;1311;22789;-73
2022/11/08 08:45:04;;;;;;;10.20;6.70;;;;;;;8.29;90.79;98703.60;102407;1303;137914;-74
2022/11/08 08:47:31;;;;;;;10.60;6.60;;;;;;;8.37;90.46;98700.02;102544;1318;22601;-73
2022/11/08 08:49:57;;;;;;;11.70;6.50;;;;;;;8.46;90.23;98695.38;102445;1317;22482;-73
2022/11/08 08:52:23;;;;;;;11.40;5.70;;;;;;;8.56;89.97;98694.14;101955;1319;137899;-73
2022/11/08 08:54:50;;;;;;;7.50;5.40;;;;;;;8.65;89.69;98691.36;102396;1305;22490;-74
2022/11/08 08:57:16;;;;;;;7.60;5.00;;;;;;;8.74;89.56;98695.05;102334;1319;137949;-73
2022/11/08 08:59:43;;;;;;;8.80;4.90;;;;;;;8.84;89.28;98699.75;102590;1319;24247;-73
2022/11/08 09:02:10;;;;;;;8.90;4.70;;;;;;;8.92;89.15;98701.23;102432;1310;23215;-73
2022/11/08 09:04:37;;;;;;;8.40;4.90;;;;;;;9.02;88.55;98701.65;102141;1319;137490;-73
2022/11/08 09:07:04;;;;;;;8.90;6.00;;;;;;;9.11;88.15;98700.33;102627;1310;22490;-73
2022/11/08 09:09:30;;;;;;;13.10;7.80;;;;;;;9.20;87.66;98701.17;102259;1319;137561;-73
2022/11/08 09:11:57;;;;;;;12.00;6.30;;;;;;;9.27;87.20;98697.63;102410;1319;25393;-72
2022/11/08 09:14:23;;;;;;;16.60;8.10;;;;;;;9.36;86.93;98698.17;102536;1302;138020;-73
2022/11/08 09:16:49;;;;;;;12.70;7.10;;;;;;;9.43;86.49;98695.27;102289;1319;138263;-74
2022/11/08 09:19:16;;;;;;;12.10;7.00;;;;;;;9.52;86.37;98694.39;102477;1316;22525;-71
2022/11/08 09:21:42;;;;;;;13.90;8.20;;;;;;;9.60;85.81;98698.04;102180;1311;138222;-74
2022/11/08 09:24:08;;;;;;;13.20;8.70;;;;;;;9.67;85.43;98701.59;102432;1318;22468;-73
2022/11/08 09:26:35;;;;;;;14.40;7.10;;;;;;;9.74;85.25;98703.61;102145;1319;138681;-73
2022/11/08 09:29:01;;;;;;;12.70;8.00;;;;;;;9.82;85.09;98697.85;102297;1317;22476;-72
2022/11/08 09:31:27;;;;;;;12.60;7.30;;;;;;;9.90;84.84;98694.75;102443;1312;24275;-73
2022/11/08 09:33:54;;;;;;;13.50;7.40;;;;;;;9.98;84.48;98693.81;102158;1319;138638;-73
2022/11/08 09:36:20;;;;;;;17.60;7.20;;;;;;;10.06;84.30;98693.67;102431;1319;24888;-73
2022/11/08 09:38:47;;;;;;;11.80;6.20;;;;;;;10.16;84.35;98691.67;102434;1319;138114;-73
2022/11/08 09:41:16;;;;;;;8.90;5.40;;;;;;;10.24;84.05;98690.55;102500;1317;22482;-73
2022/11/08 09:43:42;;;;;;;;;;;;;;;10.34;83.69;98690.32;102396;1313;22510;-73
2022/11/08 09:46:10;;;;;;;9.40;5.50;;;;;;;10.42;83.39;98690.18;102329;1319;124686;-73
2022/11/08 09:48:41;;;;;;;11.30;5.90;;;;;;;10.52;83.26;98692.30;102292;1320;22108;-73
2022/11/08 09:51:20;;;;;;;9.80;5.40;;;;;;;10.62;82.33;98691.36;102142;1318;138019;-73
2022/11/08 09:53:50;;;;;;;8.50;5.30;;;;;;;10.72;82.59;98692.34;102432;1319;23374;-73
2022/11/08 09:56:31;;;;;;;9.30;5.10;;;;;;;10.82;81.59;98693.91;102642;1319;27219;-74
2022/11/08 09:59:07;;;;;;;9.10;5.30;;;;;;;10.93;81.49;98692.61;102366;1313;137512;-73
2022/11/08 10:01:35;;;;;;;11.50;5.70;;;;;;;11.04;81.33;98693.70;102348;1319;24343;-73
2022/11/08 10:04:09;;;;;;;12.90;5.70;;;;;;;11.13;81.19;98690.00;102997;1318;138082;-73
2022/11/08 10:07:02;;;;;;;10.40;5.70;;;;;;;11.22;80.53;98686.42;102245;1319;24275;-73
2022/11/08 10:09:57;;;;;;;8.00;4.90;;;;;;;11.33;79.95;98685.98;102022;1319;138005;-75
2022/11/08 10:12:49;;;;;;;9.20;4.80;;;;;;;11.43;79.71;98683.86;102354;1319;22478;-73
2022/11/08 10:15:40;;;;;;;6.30;4.00;;;;;;;11.53;78.63;98683.88;101310;1303;138160;-75
2022/11/08 10:18:12;;;;;;;10.30;4.70;;;;;;;11.64;78.49;98682.81;101626;1324;24249;-74
2022/11/08 10:20:47;;;;;;;10.00;4.00;;;;;;;11.74;78.15;98682.05;101387;1325;138392;-75
2022/11/08 10:23:35;;;;;;;8.10;4.50;;;;;;;11.85;78.26;98674.42;101513;1325;22485;-75
2022/11/08 10:26:17;;;;;;;6.10;4.50;;;;;;;11.97;77.80;98664.70;101599;1325;22529;-74
2022/11/08 10:29:01;;;;;;;7.50;4.00;;;;;;;12.07;77.36;98659.78;101435;1325;137959;-76
2022/11/08 10:31:33;;;;;;;7.40;4.50;;;;;;;12.18;77.02;98660.61;101601;1325;22485;-75
2022/11/08 10:34:02;;;;;;;6.40;3.40;;;;;;;12.26;76.11;98656.90;101481;1308;138358;-74
2022/11/08 10:36:33;;;;;;;10.10;3.90;;;;;;;12.33;75.21;98655.20;101631;1317;22498;-75
2022/11/08 10:38:59;;;;;;;5.00;3.80;;;;;;;12.41;74.17;98649.19;101432;1317;138324;-75
2022/11/08 10:41:39;;;;;;;7.30;3.70;;;;;;;12.47;74.23;98644.52;102328;1325;22222;-75
2022/11/08 10:44:11;;;;;;;6.80;3.90;;;;;;;12.56;74.27;98641.59;103192;1317;22485;-74
2022/11/08 10:46:40;;;;;;;4.80;3.50;;;;;;;12.65;73.87;98639.84;101631;1317;137956;-74
2022/11/08 10:49:13;;;;;;;6.90;3.90;;;;;;;12.74;73.50;98638.80;101847;1325;24389;-76
2022/11/08 10:51:41;;;;;;;7.00;3.80;;;;;;;12.81;73.02;98639.10;101452;1319;137790;-74
2022/11/08 10:54:27;;;;;;;10.10;4.30;;;;;;;12.88;72.67;98634.09;102399;1298;22466;-74
2022/11/08 10:56:57;;;;;;;7.20;4.20;;;;;;;12.96;72.67;98628.91;102125;1319;138224;-74
2022/11/08 10:59:31;;;;;;;9.20;4.50;;;;;;;13.04;72.53;98628.59;102282;1318;24273;-74
2022/11/08 11:01:57;;;;;;;6.40;3.50;;;;;;;13.11;72.74;98626.31;102234;1319;22496;-74
2022/11/08 11:04:30;;;;;;;5.40;3.50;;;;;;;13.18;72.08;98621.84;102015;1319;137811;-74
2022/11/08 11:07:01;;;;;;;6.90;2.70;;;;;;;13.26;72.10;98617.94;101904;1319;24264;-74
2022/11/08 11:09:28;;;;;;;4.90;2.50;;;;;;;13.35;71.00;98611.77;102109;1319;137705;-73
2022/11/08 11:12:00;;;;;;;4.10;2.20;;;;;;;13.42;70.32;98608.98;102257;1319;22613;-74
2022/11/08 11:14:26;;;;;;;3.80;2.50;;;;;;;13.51;69.54;98606.16;102201;1291;137923;-74
2022/11/08 11:17:07;;;;;;;4.80;2.40;;;;;;;13.58;69.36;98605.02;102138;1319;137855;-75
2022/11/08 11:19:33;;;;;;;3.10;1.90;;;;;;;13.66;68.99;98601.35;102125;1319;22486;-74
2022/11/08 11:22:11;;;;;;;4.70;2.00;;;;;;;13.73;68.82;98603.33;102046;1314;137767;-75
2022/11/08 11:24:50;;;;;;;4.50;1.80;;;;;;;13.79;68.30;98600.14;102326;1297;22514;-74
2022/11/08 11:27:23;;;;;;;3.50;2.20;;;;;;;13.86;68.01;98592.73;102142;1318;137593;-75
2022/11/08 11:30:23;;;;;;;3.50;2.00;;;;;;;13.94;67.89;98594.50;102367;1318;24204;-74
2022/11/08 11:33:12;;;;;;;2.80;2.10;;;;;;;14.01;67.87;98596.17;102087;1317;137629;-74
2022/11/08 11:35:50;;;;;;;3.80;2.10;;;;;;;14.06;67.34;98595.77;102143;1319;25508;-74
2022/11/08 11:38:27;;;;;;;5.20;2.60;;;;;;;14.11;66.99;98596.95;102297;1318;22519;-75
2022/11/08 11:40:59;;;;;;;4.80;2.70;;;;;;;14.15;66.69;98588.83;102160;1314;136874;-75
2022/11/08 11:43:37;;;;;;;6.70;2.80;;;;;;;14.18;66.30;98593.33;102122;1317;22568;-74
2022/11/08 11:46:23;;;;;;;4.40;2.50;;;;;;;14.23;66.35;98589.08;101593;1314;137324;-74
2022/11/08 11:48:58;;;;;;;6.70;1.90;;;;;;;14.25;65.78;98585.98;102213;1305;24272;-74
2022/11/08 11:51:28;;;;;;;4.00;1.60;;;;;;;14.28;64.50;98583.95;102015;1319;137236;-74
2022/11/08 11:53:57;;;;;;;2.60;1.90;;;;;;;14.30;64.05;98581.95;102363;1319;22563;-77
2022/11/08 11:56:29;;;;;;;4.30;1.90;;;;;;;14.34;64.58;98582.45;102310;1298;22748;-74